createdAt,value
2019-03-03T00:00:11.563Z,10.03
2019-03-03T00:00:56.029Z,10.15
2019-03-03T00:01:57.035Z,10.05
2019-03-03T00:02:56.003Z,10.06
2019-03-03T00:03:56.024Z,10.06
2019-03-03T00:04:55.997Z,10.13
2019-03-03T00:05:56.038Z,10.10
2019-03-03T00:06:55.961Z,10.09
2019-03-03T00:07:56.052Z,10.10
2019-03-03T00:08:55.939Z,10.07
2019-03-03T00:09:55.995Z,10.09
2019-03-03T00:10:55.919Z,10.02
2019-03-03T00:11:55.978Z,10.00
2019-03-03T00:12:55.896Z,10.10
2019-03-03T00:13:55.991Z,10.00
2019-03-03T00:14:55.889Z,10.09
2019-03-03T00:15:55.910Z,10.03
2019-03-03T00:16:55.854Z,10.05
2019-03-03T00:17:55.919Z,10.02
2019-03-03T00:18:55.833Z,10.09
2019-03-03T00:19:55.857Z,10.12
2019-03-03T00:20:55.811Z,10.10
2019-03-03T00:21:55.841Z,10.20
2019-03-03T00:22:55.792Z,10.06
2019-03-03T00:23:55.854Z,10.10
2019-03-03T00:24:55.783Z,10.06
2019-03-03T00:25:55.868Z,10.05
2019-03-03T00:26:55.748Z,10.15
2019-03-03T00:27:55.786Z,10.05
2019-03-03T00:28:55.727Z,10.02
2019-03-03T00:29:55.826Z,10.02
2019-03-03T00:30:55.707Z,10.13
2019-03-03T00:31:55.706Z,10.07
2019-03-03T00:32:55.683Z,10.13
2019-03-03T00:33:55.719Z,10.09
2019-03-03T00:34:55.675Z,10.12
2019-03-03T00:35:55.733Z,10.10
2019-03-03T00:36:55.643Z,10.13
2019-03-03T00:37:55.650Z,10.02
2019-03-03T00:38:55.618Z,10.09
2019-03-03T00:39:55.691Z,10.07
2019-03-03T00:40:55.596Z,10.07
2019-03-03T00:41:55.672Z,10.03
2019-03-03T00:42:55.574Z,10.05
2019-03-03T00:43:55.587Z,10.07
2019-03-03T00:44:55.570Z,10.10
2019-03-03T00:45:55.596Z,10.02
2019-03-03T00:46:55.532Z,10.09
2019-03-03T00:47:55.616Z,10.02
2019-03-03T00:48:55.513Z,10.00
2019-03-03T00:49:55.559Z,10.03
2019-03-03T00:50:55.490Z,10.06
2019-03-03T00:51:55.541Z,10.00
2019-03-03T00:52:55.468Z,9.99
2019-03-03T00:53:55.558Z,9.97
2019-03-03T00:54:55.460Z,9.97
2019-03-03T00:55:55.460Z,9.95
2019-03-03T00:56:55.427Z,10.00
2019-03-03T00:57:55.482Z,10.00
2019-03-03T00:58:55.403Z,10.05
2019-03-03T01:00:02.584Z,10.06
2019-03-03T01:00:55.383Z,10.00
2019-03-03T01:01:55.406Z,9.97
2019-03-03T01:02:55.360Z,9.95
2019-03-03T01:03:56.443Z,10.00
2019-03-03T01:04:55.339Z,9.91
2019-03-03T01:05:55.357Z,9.95
2019-03-03T01:06:55.321Z,9.95
2019-03-03T01:07:55.344Z,9.91
2019-03-03T01:08:55.298Z,9.91
2019-03-03T01:09:55.355Z,9.90
2019-03-03T01:10:55.287Z,9.92
2019-03-03T01:11:55.370Z,9.92
2019-03-03T01:12:55.255Z,9.92
2019-03-03T01:13:55.741Z,9.90
2019-03-03T01:14:55.232Z,9.92
2019-03-03T01:15:55.322Z,9.97
2019-03-03T01:16:55.213Z,10.00
2019-03-03T01:17:55.313Z,9.91
2019-03-03T01:18:55.191Z,9.88
2019-03-03T01:19:55.219Z,9.92
2019-03-03T01:20:55.184Z,9.90
2019-03-03T01:21:55.238Z,9.84
2019-03-03T01:22:55.145Z,9.77
2019-03-03T01:23:55.246Z,9.87
2019-03-03T01:24:55.123Z,9.90
2019-03-03T01:25:55.187Z,9.81
2019-03-03T01:26:55.102Z,9.82
2019-03-03T01:27:55.171Z,9.74
2019-03-03T01:28:55.082Z,9.82
2019-03-03T01:29:55.186Z,9.74
2019-03-03T01:30:55.073Z,9.76
2019-03-03T01:32:02.062Z,9.82
2019-03-03T01:32:55.038Z,9.64
2019-03-03T01:33:57.056Z,9.66
2019-03-03T01:34:55.018Z,9.66
2019-03-03T01:35:55.048Z,9.63
2019-03-03T01:36:54.994Z,9.62
2019-03-03T01:37:55.035Z,9.66
2019-03-03T01:38:54.974Z,9.63
2019-03-03T01:39:55.053Z,9.70
2019-03-03T01:40:54.989Z,9.67
2019-03-03T01:41:54.967Z,9.64
2019-03-03T01:42:54.928Z,9.81
2019-03-03T01:43:54.974Z,9.63
2019-03-03T01:44:54.912Z,9.77
2019-03-03T01:45:54.995Z,9.81
2019-03-03T01:46:54.903Z,9.81
2019-03-03T01:47:54.902Z,9.85
2019-03-03T01:48:54.865Z,9.80
2019-03-03T01:49:54.912Z,9.81
2019-03-03T01:50:54.849Z,9.69
2019-03-03T01:51:54.954Z,9.82
2019-03-03T01:52:54.822Z,9.80
2019-03-03T01:53:54.838Z,9.80
2019-03-03T01:54:54.800Z,9.76
2019-03-03T01:55:54.852Z,9.91
2019-03-03T01:56:54.791Z,9.82
2019-03-03T01:57:54.864Z,9.88
2019-03-03T01:58:54.758Z,9.85
2019-03-03T01:59:54.779Z,9.84
2019-03-03T02:00:54.736Z,9.92
2019-03-03T02:01:54.826Z,9.88
2019-03-03T02:02:54.715Z,9.91
2019-03-03T02:03:54.807Z,9.91
2019-03-03T02:04:54.693Z,9.95
2019-03-03T02:05:54.718Z,9.91
2019-03-03T02:06:54.697Z,9.91
2019-03-03T02:07:54.733Z,9.87
2019-03-03T02:08:54.651Z,9.87
2019-03-03T02:09:54.749Z,9.87
2019-03-03T02:10:54.630Z,9.87
2019-03-03T02:11:54.686Z,9.97
2019-03-03T02:12:54.608Z,10.02
2019-03-03T02:13:54.666Z,9.99
2019-03-03T02:14:54.586Z,10.05
2019-03-03T02:15:54.684Z,9.99
2019-03-03T02:16:54.585Z,10.02
2019-03-03T02:18:10.574Z,10.03
2019-03-03T02:18:54.546Z,9.97
2019-03-03T02:20:10.069Z,10.06
2019-03-03T02:20:54.523Z,10.06
2019-03-03T02:21:54.554Z,10.07
2019-03-03T02:22:54.500Z,10.06
2019-03-03T02:23:54.534Z,10.00
2019-03-03T02:24:54.480Z,10.12
2019-03-03T02:25:54.549Z,10.07
2019-03-03T02:26:54.474Z,10.07
2019-03-03T02:27:54.560Z,10.07
2019-03-03T02:28:54.438Z,10.15
2019-03-03T02:29:54.471Z,10.10
2019-03-03T02:30:54.421Z,10.10
2019-03-03T02:31:54.516Z,10.15
2019-03-03T02:32:54.411Z,10.23
2019-03-03T02:33:54.499Z,10.24
2019-03-03T02:34:54.373Z,10.18
2019-03-03T02:35:54.417Z,10.12
2019-03-03T02:36:54.382Z,10.13
2019-03-03T02:37:54.423Z,10.20
2019-03-03T02:38:54.332Z,10.21
2019-03-03T02:39:54.333Z,10.18
2019-03-03T02:40:54.313Z,10.15
2019-03-03T02:41:54.346Z,10.12
2019-03-03T02:42:54.306Z,10.21
2019-03-03T02:43:54.362Z,10.23
2019-03-03T02:44:54.267Z,10.28
2019-03-03T02:45:54.271Z,10.21
2019-03-03T02:46:54.247Z,10.23
2019-03-03T02:47:54.321Z,10.15
2019-03-03T02:48:54.227Z,10.20
2019-03-03T02:49:54.300Z,10.20
2019-03-03T02:50:54.206Z,10.17
2019-03-03T02:51:54.217Z,10.27
2019-03-03T02:52:54.206Z,10.18
2019-03-03T02:53:54.231Z,10.18
2019-03-03T02:54:54.165Z,10.24
2019-03-03T02:55:54.240Z,10.24
2019-03-03T02:56:54.140Z,10.21
2019-03-03T02:57:54.188Z,10.18
2019-03-03T02:58:54.118Z,10.23
2019-03-03T02:59:54.233Z,10.25
2019-03-03T03:00:54.093Z,10.25
2019-03-03T03:02:02.061Z,10.25
2019-03-03T03:02:54.084Z,10.24
2019-03-03T03:03:56.135Z,10.30
2019-03-03T03:04:54.050Z,10.33
2019-03-03T03:06:01.577Z,10.21
2019-03-03T03:06:54.029Z,10.31
2019-03-03T03:07:54.043Z,10.25
2019-03-03T03:08:54.005Z,10.45
2019-03-03T03:09:54.029Z,10.34
2019-03-03T03:10:53.984Z,10.31
2019-03-03T03:11:54.043Z,10.38
2019-03-03T03:12:53.976Z,10.27
2019-03-03T03:13:54.059Z,10.25
2019-03-03T03:14:53.937Z,10.24
2019-03-03T03:15:53.963Z,10.23
2019-03-03T03:16:53.915Z,10.25
2019-03-03T03:17:54.011Z,10.38
2019-03-03T03:18:53.896Z,10.39
2019-03-03T03:19:53.991Z,10.31
2019-03-03T03:20:53.873Z,10.42
2019-03-03T03:21:53.903Z,10.42
2019-03-03T03:22:53.860Z,10.39
2019-03-03T03:23:53.917Z,10.42
2019-03-03T03:24:53.831Z,10.45
2019-03-03T03:25:53.830Z,10.41
2019-03-03T03:26:53.803Z,10.39
2019-03-03T03:27:53.874Z,10.42
2019-03-03T03:28:53.784Z,10.39
2019-03-03T03:29:53.862Z,10.48
2019-03-03T03:30:53.758Z,10.38
2019-03-03T03:31:53.790Z,10.39
2019-03-03T03:32:53.752Z,10.45
2019-03-03T03:33:53.786Z,10.39
2019-03-03T03:34:53.716Z,10.39
2019-03-03T03:35:53.794Z,10.38
2019-03-03T03:36:53.694Z,10.38
2019-03-03T03:37:53.745Z,10.36
2019-03-03T03:38:53.670Z,10.41
2019-03-03T03:39:53.719Z,10.31
2019-03-03T03:40:53.646Z,10.42
2019-03-03T03:41:53.734Z,10.51
2019-03-03T03:42:53.672Z,10.51
2019-03-03T03:43:53.644Z,10.42
2019-03-03T03:44:53.602Z,10.39
2019-03-03T03:45:54.688Z,10.41
2019-03-03T03:46:53.579Z,10.46
2019-03-03T03:48:10.569Z,10.41
2019-03-03T03:48:53.648Z,10.41
2019-03-03T03:50:01.166Z,10.51
2019-03-03T03:50:53.544Z,10.46
2019-03-03T03:51:55.547Z,10.48
2019-03-03T03:52:53.514Z,10.51
2019-03-03T03:53:53.543Z,10.49
2019-03-03T03:54:53.491Z,10.49
2019-03-03T03:55:53.521Z,10.49
2019-03-03T03:56:53.470Z,10.48
2019-03-03T03:57:53.535Z,10.42
2019-03-03T03:58:53.462Z,10.45
2019-03-03T03:59:53.453Z,10.51
2019-03-03T04:00:53.423Z,10.53
2019-03-03T04:01:53.462Z,10.55
2019-03-03T04:02:53.407Z,10.45
2019-03-03T04:03:53.518Z,10.46
2019-03-03T04:04:53.379Z,10.46
2019-03-03T04:05:53.387Z,10.48
2019-03-03T04:06:53.358Z,10.55
2019-03-03T04:07:53.414Z,10.49
2019-03-03T04:08:53.356Z,10.46
2019-03-03T04:09:53.413Z,10.45
2019-03-03T04:10:53.318Z,10.46
2019-03-03T04:11:53.324Z,10.55
2019-03-03T04:12:53.291Z,10.49
2019-03-03T04:13:53.374Z,10.48
2019-03-03T04:14:53.271Z,10.62
2019-03-03T04:15:53.351Z,10.55
2019-03-03T04:16:53.250Z,10.57
2019-03-03T04:17:53.266Z,10.51
2019-03-03T04:18:53.242Z,10.53
2019-03-03T04:19:53.278Z,10.51
2019-03-03T04:20:53.203Z,10.51
2019-03-03T04:21:53.291Z,10.49
2019-03-03T04:22:53.180Z,10.49
2019-03-03T04:23:53.233Z,10.42
2019-03-03T04:24:53.158Z,10.45
2019-03-03T04:25:53.216Z,10.46
2019-03-03T04:26:53.134Z,10.48
2019-03-03T04:27:53.229Z,10.42
2019-03-03T04:28:53.132Z,10.53
2019-03-03T04:29:53.145Z,10.43
2019-03-03T04:30:53.090Z,10.42
2019-03-03T04:32:02.068Z,10.46
2019-03-03T04:32:53.071Z,10.43
2019-03-03T04:33:53.102Z,10.42
2019-03-03T04:34:53.046Z,10.49
2019-03-03T04:35:54.108Z,10.49
2019-03-03T04:36:53.025Z,10.53
2019-03-03T04:37:54.131Z,10.53
2019-03-03T04:38:53.021Z,10.41
2019-03-03T04:39:53.008Z,10.53
2019-03-03T04:40:52.980Z,10.48
2019-03-03T04:41:53.021Z,10.48
2019-03-03T04:42:52.959Z,10.48
2019-03-03T04:43:53.068Z,10.61
2019-03-03T04:44:52.940Z,10.51
2019-03-03T04:45:52.947Z,10.46
2019-03-03T04:46:52.913Z,10.53
2019-03-03T04:47:52.960Z,10.55
2019-03-03T04:48:52.928Z,10.53
2019-03-03T04:49:52.976Z,10.48
2019-03-03T04:50:52.869Z,10.48
2019-03-03T04:51:52.887Z,10.39
2019-03-03T04:52:52.847Z,10.46
2019-03-03T04:53:52.900Z,10.38
2019-03-03T04:54:52.841Z,10.41
2019-03-03T04:55:52.913Z,10.25
2019-03-03T04:56:52.804Z,10.24
2019-03-03T04:57:52.828Z,10.23
2019-03-03T04:58:52.780Z,10.23
2019-03-03T04:59:52.872Z,10.17
2019-03-03T05:00:52.763Z,10.13
2019-03-03T05:01:52.855Z,10.10
2019-03-03T05:02:52.748Z,10.02
2019-03-03T05:03:52.767Z,9.90
2019-03-03T05:04:52.732Z,9.77
2019-03-03T05:05:52.777Z,9.72
2019-03-03T05:06:52.698Z,9.64
2019-03-03T05:07:52.791Z,9.62
2019-03-03T05:08:52.677Z,9.63
2019-03-03T05:09:52.734Z,9.67
2019-03-03T05:10:52.650Z,9.49
2019-03-03T05:11:52.716Z,9.52
2019-03-03T05:12:52.629Z,9.45
2019-03-03T05:13:52.730Z,9.58
2019-03-03T05:14:52.625Z,9.55
2019-03-03T05:15:52.640Z,9.51
2019-03-03T05:16:52.589Z,9.55
2019-03-03T05:18:01.563Z,9.52
2019-03-03T05:18:52.569Z,9.54
2019-03-03T05:19:52.605Z,9.49
2019-03-03T05:20:52.543Z,9.48
2019-03-03T05:21:52.579Z,9.52
2019-03-03T05:22:52.524Z,9.56
2019-03-03T05:23:53.624Z,9.58
2019-03-03T05:24:52.518Z,9.49
2019-03-03T05:25:52.608Z,9.56
2019-03-03T05:26:52.480Z,9.56
2019-03-03T05:27:52.518Z,9.64
2019-03-03T05:28:52.457Z,9.51
2019-03-03T05:29:52.563Z,9.51
2019-03-03T05:30:52.437Z,9.51
2019-03-03T05:31:52.444Z,9.58
2019-03-03T05:32:52.413Z,9.52
2019-03-03T05:33:52.456Z,9.48
2019-03-03T05:34:52.396Z,9.42
2019-03-03T05:35:52.506Z,9.42
2019-03-03T05:36:52.374Z,9.40
2019-03-03T05:37:52.382Z,9.33
2019-03-03T05:38:52.350Z,9.27
2019-03-03T05:39:52.394Z,9.27
2019-03-03T05:40:52.344Z,9.18
2019-03-03T05:41:52.411Z,9.26
2019-03-03T05:42:52.310Z,9.16
2019-03-03T05:43:52.319Z,9.24
2019-03-03T05:44:52.286Z,9.18
2019-03-03T05:45:52.367Z,9.21
2019-03-03T05:46:52.266Z,9.16
2019-03-03T05:47:52.374Z,9.24
2019-03-03T05:48:52.242Z,9.13
2019-03-03T05:49:52.269Z,9.16
2019-03-03T05:50:52.237Z,9.21
2019-03-03T05:51:52.271Z,9.19
2019-03-03T05:52:52.200Z,9.11
2019-03-03T05:53:52.288Z,9.27
2019-03-03T05:54:52.178Z,9.13
2019-03-03T05:55:52.228Z,9.27
2019-03-03T05:56:52.159Z,9.21
2019-03-03T05:57:52.210Z,9.16
2019-03-03T05:58:52.138Z,9.26
2019-03-03T05:59:52.223Z,9.19
2019-03-03T06:00:52.130Z,9.12
2019-03-03T06:01:52.134Z,9.08
2019-03-03T06:02:52.492Z,9.12
2019-03-03T06:03:53.173Z,9.05
2019-03-03T06:04:52.075Z,9.12
2019-03-03T06:05:52.094Z,9.13
2019-03-03T06:06:52.057Z,9.13
2019-03-03T06:07:52.072Z,9.21
2019-03-03T06:08:52.031Z,9.27
2019-03-03T06:09:52.091Z,9.24
2019-03-03T06:10:52.030Z,9.29
2019-03-03T06:11:52.100Z,9.29
2019-03-03T06:12:51.992Z,9.33
2019-03-03T06:13:52.011Z,9.29
2019-03-03T06:14:51.964Z,9.18
2019-03-03T06:15:52.058Z,9.34
2019-03-03T06:16:51.949Z,9.22
2019-03-03T06:17:52.038Z,9.24
2019-03-03T06:18:51.933Z,9.26
2019-03-03T06:19:51.951Z,9.31
2019-03-03T06:20:51.910Z,9.16
2019-03-03T06:21:51.996Z,9.18
2019-03-03T06:22:51.879Z,9.22
2019-03-03T06:23:51.979Z,9.34
2019-03-03T06:24:51.862Z,9.22
2019-03-03T06:25:51.889Z,9.22
2019-03-03T06:26:51.855Z,9.31
2019-03-03T06:27:51.904Z,9.29
2019-03-03T06:28:51.818Z,9.27
2019-03-03T06:29:51.915Z,9.15
2019-03-03T06:30:51.795Z,9.26
2019-03-03T06:31:51.858Z,9.15
2019-03-03T06:32:51.782Z,9.31
2019-03-03T06:33:51.843Z,9.24
2019-03-03T06:34:51.752Z,9.13
2019-03-03T06:35:52.818Z,9.26
2019-03-03T06:36:51.752Z,9.26
2019-03-03T06:37:51.767Z,9.13
2019-03-03T06:38:51.708Z,9.31
2019-03-03T06:39:51.783Z,9.24
2019-03-03T06:40:51.688Z,9.34
2019-03-03T06:41:51.726Z,9.22
2019-03-03T06:42:51.665Z,9.26
2019-03-03T06:43:51.705Z,9.24
2019-03-03T06:44:51.644Z,9.31
2019-03-03T06:45:51.721Z,9.22
2019-03-03T06:46:51.642Z,9.22
2019-03-03T06:47:51.630Z,9.31
2019-03-03T06:48:51.599Z,9.36
2019-03-03T06:49:53.697Z,9.30
2019-03-03T06:50:52.966Z,9.31
2019-03-03T06:51:53.637Z,9.30
2019-03-03T06:52:51.558Z,9.22
2019-03-03T06:53:51.571Z,9.29
2019-03-03T06:54:51.536Z,9.26
2019-03-03T06:55:52.610Z,9.34
2019-03-03T06:56:51.529Z,9.30
2019-03-03T06:57:51.602Z,9.34
2019-03-03T06:58:51.504Z,9.33
2019-03-03T06:59:51.511Z,9.36
2019-03-03T07:00:51.473Z,9.31
2019-03-03T07:01:51.559Z,9.30
2019-03-03T07:02:51.449Z,9.37
2019-03-03T07:03:51.541Z,9.34
2019-03-03T07:04:51.435Z,9.34
2019-03-03T07:05:51.454Z,9.33
2019-03-03T07:06:51.420Z,9.34
2019-03-03T07:07:51.465Z,9.31
2019-03-03T07:08:51.405Z,9.36
2019-03-03T07:09:51.475Z,9.33
2019-03-03T07:10:51.377Z,9.27
2019-03-03T07:11:51.419Z,9.31
2019-03-03T07:12:51.346Z,9.29
2019-03-03T07:13:51.405Z,9.27
2019-03-03T07:14:51.327Z,9.33
2019-03-03T07:15:51.421Z,9.21
2019-03-03T07:16:51.317Z,9.19
2019-03-03T07:17:51.329Z,9.33
2019-03-03T07:18:51.279Z,9.27
2019-03-03T07:19:52.392Z,9.26
2019-03-03T07:20:51.255Z,9.30
2019-03-03T07:21:51.280Z,9.42
2019-03-03T07:22:51.234Z,9.39
2019-03-03T07:23:51.264Z,9.51
2019-03-03T07:24:51.212Z,9.42
2019-03-03T07:25:51.277Z,9.45
2019-03-03T07:26:51.209Z,9.42
2019-03-03T07:27:51.291Z,9.33
2019-03-03T07:28:51.180Z,9.45
2019-03-03T07:29:51.205Z,9.40
2019-03-03T07:30:51.153Z,9.42
2019-03-03T07:31:51.261Z,9.45
2019-03-03T07:32:51.126Z,9.40
2019-03-03T07:33:51.230Z,9.45
2019-03-03T07:34:51.111Z,9.45
2019-03-03T07:35:53.199Z,9.44
2019-03-03T07:36:51.111Z,9.55
2019-03-03T07:38:00.081Z,9.40
2019-03-03T07:38:51.071Z,9.42
2019-03-03T07:39:51.076Z,9.47
2019-03-03T07:40:51.041Z,9.44
2019-03-03T07:41:54.107Z,9.47
2019-03-03T07:42:51.025Z,9.37
2019-03-03T07:43:53.039Z,9.49
2019-03-03T07:44:50.996Z,9.55
2019-03-03T07:45:51.162Z,9.59
2019-03-03T07:46:51.067Z,9.59
2019-03-03T07:47:51.034Z,9.48
2019-03-03T07:48:50.983Z,9.70
2019-03-03T07:49:51.052Z,9.70
2019-03-03T07:50:50.969Z,9.66
2019-03-03T07:51:51.012Z,9.66
2019-03-03T07:52:50.926Z,9.73
2019-03-03T07:53:50.956Z,9.66
2019-03-03T07:54:50.889Z,9.81
2019-03-03T07:55:50.972Z,9.85
2019-03-03T07:56:50.923Z,9.80
2019-03-03T07:57:50.897Z,9.85
2019-03-03T07:58:50.848Z,9.91
2019-03-03T07:59:50.904Z,9.91
2019-03-03T08:00:50.866Z,9.95
2019-03-03T08:01:50.911Z,9.92
2019-03-03T08:02:50.818Z,9.91
2019-03-03T08:03:50.820Z,9.92
2019-03-03T08:04:50.787Z,9.88
2019-03-03T08:05:50.871Z,9.90
2019-03-03T08:06:50.762Z,9.85
2019-03-03T08:07:50.889Z,9.91
2019-03-03T08:08:50.761Z,9.95
2019-03-03T08:09:50.848Z,9.92
2019-03-03T08:10:50.722Z,9.88
2019-03-03T08:11:51.798Z,9.94
2019-03-03T08:12:50.734Z,9.94
2019-03-03T08:13:50.802Z,9.90
2019-03-03T08:14:50.708Z,9.91
2019-03-03T08:15:50.708Z,9.84
2019-03-03T08:16:50.653Z,9.97
2019-03-03T08:17:50.754Z,9.97
2019-03-03T08:18:50.652Z,9.99
2019-03-03T08:19:50.729Z,10.02
2019-03-03T08:20:50.627Z,10.00
2019-03-03T08:21:50.641Z,10.05
2019-03-03T08:22:50.617Z,9.97
2019-03-03T08:23:52.622Z,9.97
2019-03-03T08:24:51.400Z,9.92
2019-03-03T08:25:57.654Z,9.97
2019-03-03T08:26:50.552Z,9.95
2019-03-03T08:27:50.620Z,9.94
2019-03-03T08:28:50.524Z,9.94
2019-03-03T08:29:52.547Z,10.00
2019-03-03T08:30:50.505Z,9.92
2019-03-03T08:31:51.542Z,9.90
2019-03-03T08:32:50.495Z,9.95
2019-03-03T08:33:50.594Z,10.00
2019-03-03T08:34:50.459Z,9.97
2019-03-03T08:35:51.556Z,9.92
2019-03-03T08:36:50.452Z,9.97
2019-03-03T08:37:50.797Z,9.87
2019-03-03T08:38:50.418Z,9.88
2019-03-03T08:39:50.468Z,9.81
2019-03-03T08:40:50.391Z,9.88
2019-03-03T08:41:50.466Z,9.80
2019-03-03T08:42:50.414Z,9.80
2019-03-03T08:43:50.659Z,9.82
2019-03-03T08:44:50.347Z,9.90
2019-03-03T08:45:50.794Z,9.84
2019-03-03T08:46:50.325Z,9.88
2019-03-03T08:47:53.266Z,9.81
2019-03-03T08:48:50.304Z,9.84
2019-03-03T08:49:50.321Z,9.84
2019-03-03T08:50:50.284Z,9.81
2019-03-03T08:51:50.334Z,9.84
2019-03-03T08:52:50.338Z,9.85
2019-03-03T08:53:50.352Z,9.84
2019-03-03T08:54:50.241Z,9.91
2019-03-03T08:55:50.257Z,9.84
2019-03-03T08:56:50.219Z,9.84
2019-03-03T08:57:50.272Z,9.91
2019-03-03T08:58:50.212Z,9.85
2019-03-03T08:59:51.206Z,9.88
2019-03-03T09:00:50.175Z,9.92
2019-03-03T09:01:50.213Z,9.84
2019-03-03T09:02:50.156Z,9.87
2019-03-03T09:03:50.241Z,9.90
2019-03-03T09:04:50.132Z,9.92
2019-03-03T09:05:50.226Z,9.95
2019-03-03T09:06:50.113Z,9.92
2019-03-03T09:07:58.123Z,10.07
2019-03-03T09:08:50.116Z,10.05
2019-03-03T09:09:51.184Z,10.05
2019-03-03T09:10:50.070Z,10.03
2019-03-03T09:11:59.071Z,10.03
2019-03-03T09:12:50.046Z,10.07
2019-03-03T09:13:50.103Z,10.09
2019-03-03T09:14:50.024Z,10.09
2019-03-03T09:15:51.121Z,10.06
2019-03-03T09:16:50.005Z,10.05
2019-03-03T09:17:51.021Z,10.03
2019-03-03T09:18:49.998Z,10.13
2019-03-03T09:19:50.017Z,10.07
2019-03-03T09:20:49.968Z,10.06
2019-03-03T09:21:50.027Z,10.12
2019-03-03T09:22:49.940Z,10.09
2019-03-03T09:23:49.981Z,10.10
2019-03-03T09:24:49.928Z,10.13
2019-03-03T09:25:49.964Z,10.09
2019-03-03T09:26:49.901Z,10.12
2019-03-03T09:27:49.966Z,10.05
2019-03-03T09:28:49.890Z,10.00
2019-03-03T09:29:49.874Z,10.13
2019-03-03T09:30:49.858Z,10.10
2019-03-03T09:31:49.899Z,10.05
2019-03-03T09:32:49.840Z,10.15
2019-03-03T09:33:49.942Z,10.18
2019-03-03T09:34:49.814Z,10.13
2019-03-03T09:35:49.817Z,10.10
2019-03-03T09:36:49.791Z,10.10
2019-03-03T09:37:49.833Z,10.09
2019-03-03T09:38:49.807Z,10.12
2019-03-03T09:39:49.843Z,10.12
2019-03-03T09:40:49.748Z,10.17
2019-03-03T09:41:49.754Z,10.15
2019-03-03T09:42:49.718Z,10.23
2019-03-03T09:43:49.767Z,10.25
2019-03-03T09:44:49.727Z,10.13
2019-03-03T09:45:49.784Z,10.24
2019-03-03T09:46:49.674Z,10.20
2019-03-03T09:47:49.691Z,10.20
2019-03-03T09:48:49.652Z,10.17
2019-03-03T09:49:49.776Z,10.18
2019-03-03T09:50:49.632Z,10.17
2019-03-03T09:51:49.721Z,10.20
2019-03-03T09:52:49.630Z,10.24
2019-03-03T09:53:49.645Z,10.21
2019-03-03T09:54:50.463Z,10.23
2019-03-03T09:55:58.654Z,10.25
2019-03-03T09:56:49.591Z,10.25
2019-03-03T09:57:50.579Z,10.25
2019-03-03T09:58:49.547Z,10.21
2019-03-03T09:59:49.608Z,10.15
2019-03-03T10:00:49.520Z,10.23
2019-03-03T10:01:50.623Z,10.23
2019-03-03T10:02:49.520Z,10.25
2019-03-03T10:03:50.517Z,10.20
2019-03-03T10:04:49.493Z,10.23
2019-03-03T10:05:49.518Z,10.18
2019-03-03T10:06:49.462Z,10.20
2019-03-03T10:07:49.521Z,10.20
2019-03-03T10:08:49.432Z,10.17
2019-03-03T10:09:49.475Z,10.17
2019-03-03T10:10:49.441Z,10.24
2019-03-03T10:11:49.445Z,10.21
2019-03-03T10:12:49.387Z,10.25
2019-03-03T10:13:49.464Z,10.17
2019-03-03T10:14:49.416Z,10.28
2019-03-03T10:15:49.372Z,10.17
2019-03-03T10:16:49.360Z,10.18
2019-03-03T10:17:49.394Z,10.18
2019-03-03T10:18:49.326Z,10.18
2019-03-03T10:19:49.403Z,10.18
2019-03-03T10:20:49.387Z,10.15
2019-03-03T10:21:49.309Z,10.20
2019-03-03T10:22:49.354Z,10.23
2019-03-03T10:23:49.331Z,10.27
2019-03-03T10:24:49.375Z,10.21
2019-03-03T10:25:49.372Z,10.23
2019-03-03T10:26:49.293Z,10.31
2019-03-03T10:27:49.290Z,10.27
2019-03-03T10:28:49.223Z,10.28
2019-03-03T10:29:49.266Z,10.17
2019-03-03T10:30:49.604Z,10.25
2019-03-03T10:31:49.282Z,10.25
2019-03-03T10:32:49.192Z,10.24
2019-03-03T10:33:49.199Z,10.24
2019-03-03T10:34:49.382Z,10.23
2019-03-03T10:35:49.233Z,10.27
2019-03-03T10:36:49.119Z,10.28
2019-03-03T10:37:49.312Z,10.18
2019-03-03T10:38:49.099Z,10.25
2019-03-03T10:39:58.138Z,10.34
2019-03-03T10:40:49.107Z,10.33
2019-03-03T10:41:51.086Z,10.28
2019-03-03T10:42:49.055Z,10.28
2019-03-03T10:43:49.155Z,10.33
2019-03-03T10:44:49.036Z,10.27
2019-03-03T10:45:49.099Z,10.34
2019-03-03T10:46:49.051Z,10.34
2019-03-03T10:47:49.078Z,10.34
2019-03-03T10:48:48.989Z,10.31
2019-03-03T10:49:48.996Z,10.38
2019-03-03T10:50:48.980Z,10.36
2019-03-03T10:51:49.004Z,10.42
2019-03-03T10:52:48.944Z,10.38
2019-03-03T10:53:49.035Z,10.42
2019-03-03T10:54:49.000Z,10.33
2019-03-03T10:55:48.961Z,10.36
2019-03-03T10:56:48.916Z,10.38
2019-03-03T10:57:48.964Z,10.39
2019-03-03T10:58:48.888Z,10.39
2019-03-03T10:59:54.908Z,10.33
2019-03-03T11:00:49.903Z,10.39
2019-03-03T11:01:48.869Z,10.38
2019-03-03T11:02:48.838Z,10.34
2019-03-03T11:03:48.881Z,10.39
2019-03-03T11:04:48.811Z,10.45
2019-03-03T11:05:48.928Z,10.38
2019-03-03T11:06:48.811Z,10.41
2019-03-03T11:07:48.805Z,10.51
2019-03-03T11:08:48.767Z,10.38
2019-03-03T11:09:48.834Z,10.45
2019-03-03T11:10:57.277Z,10.39
2019-03-03T11:11:49.755Z,10.45
2019-03-03T11:12:48.740Z,10.39
2019-03-03T11:13:48.772Z,10.41
2019-03-03T11:14:48.751Z,10.41
2019-03-03T11:15:48.690Z,10.43
2019-03-03T11:16:48.799Z,10.48
2019-03-03T11:17:48.670Z,10.42
2019-03-03T11:18:55.809Z,10.55
2019-03-03T11:19:49.656Z,10.46
2019-03-03T11:20:48.690Z,10.34
2019-03-03T11:21:48.641Z,10.43
2019-03-03T11:22:48.709Z,10.45
2019-03-03T11:23:48.703Z,10.46
2019-03-03T11:24:55.578Z,10.49
2019-03-03T11:25:48.583Z,10.57
2019-03-03T11:26:49.693Z,10.61
2019-03-03T11:27:48.812Z,10.62
2019-03-03T11:28:48.645Z,10.59
2019-03-03T11:29:48.566Z,10.55
2019-03-03T11:30:48.573Z,10.62
2019-03-03T11:31:48.573Z,10.62
2019-03-03T11:32:48.583Z,10.64
2019-03-03T11:33:48.496Z,10.57
2019-03-03T11:34:48.590Z,10.58
2019-03-03T11:35:48.475Z,10.64
2019-03-03T11:36:48.526Z,10.57
2019-03-03T11:37:48.460Z,10.55
2019-03-03T11:38:48.506Z,10.55
2019-03-03T11:39:48.435Z,10.58
2019-03-03T11:40:48.521Z,10.67
2019-03-03T11:41:48.425Z,10.57
2019-03-03T11:42:48.434Z,10.64
2019-03-03T11:43:48.389Z,10.75
2019-03-03T11:44:48.446Z,10.68
2019-03-03T11:45:48.379Z,10.68
2019-03-03T11:46:48.394Z,10.80
2019-03-03T11:47:48.370Z,10.76
2019-03-03T11:48:48.423Z,10.71
2019-03-03T11:49:48.510Z,10.77
2019-03-03T11:50:48.384Z,10.77
2019-03-03T11:51:48.520Z,10.68
2019-03-03T11:52:48.398Z,10.75
2019-03-03T11:53:48.284Z,10.68
2019-03-03T11:54:48.310Z,10.69
2019-03-03T11:55:48.285Z,10.68
2019-03-03T11:56:48.384Z,10.67
2019-03-03T11:57:48.241Z,10.71
2019-03-03T11:58:48.337Z,10.79
2019-03-03T11:59:48.233Z,10.77
2019-03-03T12:00:48.270Z,10.71
2019-03-03T12:01:48.199Z,10.80
2019-03-03T12:02:53.955Z,10.80
2019-03-03T12:03:49.179Z,10.80
2019-03-03T12:04:48.543Z,10.86
2019-03-03T12:05:48.153Z,10.83
2019-03-03T12:06:48.187Z,10.89
2019-03-03T12:07:48.200Z,10.86
2019-03-03T12:08:48.202Z,10.89
2019-03-03T12:09:48.173Z,10.89
2019-03-03T12:10:55.113Z,10.83
2019-03-03T12:11:48.093Z,10.86
2019-03-03T12:12:53.592Z,10.82
2019-03-03T12:13:48.066Z,11.00
2019-03-03T12:14:55.156Z,10.86
2019-03-03T12:15:48.067Z,10.75
2019-03-03T12:16:50.204Z,10.92
2019-03-03T12:17:48.038Z,10.89
2019-03-03T12:18:48.068Z,10.98
2019-03-03T12:19:48.004Z,10.95
2019-03-03T12:20:48.079Z,10.87
2019-03-03T12:21:48.215Z,10.95
2019-03-03T12:22:48.227Z,10.97
2019-03-03T12:23:47.962Z,10.94
2019-03-03T12:24:48.003Z,11.05
2019-03-03T12:25:47.935Z,11.00
2019-03-03T12:26:48.033Z,11.01
2019-03-03T12:27:47.925Z,11.08
2019-03-03T12:28:47.936Z,11.10
2019-03-03T12:29:47.897Z,11.08
2019-03-03T12:30:47.944Z,11.04
2019-03-03T12:31:47.876Z,11.10
2019-03-03T12:32:47.885Z,11.23
2019-03-03T12:33:47.847Z,11.31
2019-03-03T12:34:47.868Z,11.33
2019-03-03T12:35:47.843Z,11.30
2019-03-03T12:36:47.882Z,11.31
2019-03-03T12:37:47.822Z,11.35
2019-03-03T12:38:47.910Z,11.27
2019-03-03T12:39:47.777Z,11.38
2019-03-03T12:40:47.806Z,11.35
2019-03-03T12:41:47.758Z,11.43
2019-03-03T12:42:47.853Z,11.40
2019-03-03T12:43:47.762Z,11.41
2019-03-03T12:44:47.843Z,11.41
2019-03-03T12:45:47.710Z,11.49
2019-03-03T12:46:47.748Z,11.43
2019-03-03T12:47:47.711Z,11.45
2019-03-03T12:48:47.760Z,11.51
2019-03-03T12:49:47.704Z,11.51
2019-03-03T12:50:47.668Z,11.41
2019-03-03T12:51:47.651Z,11.53
2019-03-03T12:52:47.683Z,11.56
2019-03-03T12:53:47.656Z,11.56
2019-03-03T12:54:47.702Z,11.56
2019-03-03T12:55:47.600Z,11.53
2019-03-03T12:56:49.679Z,11.52
2019-03-03T12:57:47.584Z,11.70
2019-03-03T12:58:47.655Z,11.58
2019-03-03T12:59:47.554Z,11.63
2019-03-03T13:00:47.640Z,11.63
2019-03-03T13:01:47.531Z,11.55